sensor_id;sensor_type;location;lat;lon;timestamp;P1;durP1;ratioP1;P2;durP2;ratioP2
5939;SDS011;2995;-31.998;115.906;2022-07-29T00:00:47;12.53;;;1.80;;
5939;SDS011;2995;-31.998;115.906;2022-07-29T00:03:18;6.00;;;1.27;;
5939;SDS011;2995;-31.998;115.906;2022-07-29T00:05:49;5.93;;;1.80;;
5939;SDS011;2995;-31.998;115.906;2022-07-29T00:08:21;8.03;;;1.60;;
5939;SDS011;2995;-31.998;115.906;2022-07-29T00:10:52;11.00;;;3.00;;
5939;SDS011;2995;-31.998;115.906;2022-07-29T00:13:25;13.87;;;2.57;;
5939;SDS011;2995;-31.998;115.906;2022-07-29T00:15:58;9.90;;;2.03;;
5939;SDS011;2995;-31.998;115.906;2022-07-29T00:18:29;18.23;;;2.90;;
5939;SDS011;2995;-31.998;115.906;2022-07-29T00:21:00;13.33;;;3.27;;
5939;SDS011;2995;-31.998;115.906;2022-07-29T00:23:32;14.30;;;2.43;;
5939;SDS011;2995;-31.998;115.906;2022-07-29T00:26:03;14.50;;;3.07;;
5939;SDS011;2995;-31.998;115.906;2022-07-29T00:28:34;18.03;;;4.07;;
5939;SDS011;2995;-31.998;115.906;2022-07-29T00:31:07;13.43;;;3.17;;
5939;SDS011;2995;-31.998;115.906;2022-07-29T00:33:39;21.70;;;5.00;;
5939;SDS011;2995;-31.998;115.906;2022-07-29T00:36:10;19.43;;;5.30;;
5939;SDS011;2995;-31.998;115.906;2022-07-29T00:38:40;18.27;;;4.10;;
5939;SDS011;2995;-31.998;115.906;2022-07-29T00:41:12;15.33;;;4.17;;
5939;SDS011;2995;-31.998;115.906;2022-07-29T00:43:44;21.00;;;4.50;;
5939;SDS011;2995;-31.998;115.906;2022-07-29T00:46:17;18.17;;;4.87;;
5939;SDS011;2995;-31.998;115.906;2022-07-29T00:48:49;20.90;;;4.30;;
5939;SDS011;2995;-31.998;115.906;2022-07-29T00:51:20;25.97;;;4.97;;
5939;SDS011;2995;-31.998;115.906;2022-07-29T00:53:51;25.97;;;5.20;;
5939;SDS011;2995;-31.998;115.906;2022-07-29T00:56:23;21.77;;;4.07;;
5939;SDS011;2995;-31.998;115.906;2022-07-29T00:58:54;23.00;;;4.77;;
5939;SDS011;2995;-31.998;115.906;2022-07-29T01:01:28;26.37;;;6.03;;
5939;SDS011;2995;-31.998;115.906;2022-07-29T01:03:59;27.07;;;5.37;;
5939;SDS011;2995;-31.998;115.906;2022-07-29T01:06:30;20.27;;;5.90;;
5939;SDS011;2995;-31.998;115.906;2022-07-29T01:09:02;21.60;;;5.37;;
5939;SDS011;2995;-31.998;115.906;2022-07-29T01:11:33;26.77;;;5.23;;
5939;SDS011;2995;-31.998;115.906;2022-07-29T01:14:05;18.40;;;4.33;;
5939;SDS011;2995;-31.998;115.906;2022-07-29T01:16:41;24.00;;;6.53;;
5939;SDS011;2995;-31.998;115.906;2022-07-29T01:19:18;17.60;;;3.67;;
5939;SDS011;2995;-31.998;115.906;2022-07-29T01:22:07;24.53;;;6.23;;
5939;SDS011;2995;-31.998;115.906;2022-07-29T01:25:10;29.10;;;5.27;;
5939;SDS011;2995;-31.998;115.906;2022-07-29T01:31:01;21.03;;;4.90;;
5939;SDS011;2995;-31.998;115.906;2022-07-29T01:33:36;19.30;;;4.47;;
5939;SDS011;2995;-31.998;115.906;2022-07-29T01:36:21;26.53;;;5.23;;
5939;SDS011;2995;-31.998;115.906;2022-07-29T01:39:08;20.90;;;5.73;;
5939;SDS011;2995;-31.998;115.906;2022-07-29T01:41:43;19.57;;;4.50;;
5939;SDS011;2995;-31.998;115.906;2022-07-29T01:44:22;26.13;;;6.70;;
5939;SDS011;2995;-31.998;115.906;2022-07-29T01:47:05;22.63;;;5.43;;
5939;SDS011;2995;-31.998;115.906;2022-07-29T01:49:43;14.73;;;3.83;;
5939;SDS011;2995;-31.998;115.906;2022-07-29T01:52:23;20.10;;;4.57;;
5939;SDS011;2995;-31.998;115.906;2022-07-29T01:55:02;20.70;;;5.27;;
5939;SDS011;2995;-31.998;115.906;2022-07-29T01:57:37;21.80;;;4.27;;
5939;SDS011;2995;-31.998;115.906;2022-07-29T02:00:11;22.97;;;5.50;;
5939;SDS011;2995;-31.998;115.906;2022-07-29T02:02:45;21.50;;;5.10;;
5939;SDS011;2995;-31.998;115.906;2022-07-29T02:05:19;19.33;;;4.70;;
5939;SDS011;2995;-31.998;115.906;2022-07-29T02:07:51;25.03;;;5.63;;
5939;SDS011;2995;-31.998;115.906;2022-07-29T02:10:25;21.97;;;4.77;;
5939;SDS011;2995;-31.998;115.906;2022-07-29T02:12:58;21.70;;;3.80;;
5939;SDS011;2995;-31.998;115.906;2022-07-29T02:15:31;20.20;;;4.50;;
5939;SDS011;2995;-31.998;115.906;2022-07-29T02:18:06;21.17;;;4.27;;
5939;SDS011;2995;-31.998;115.906;2022-07-29T02:20:40;16.93;;;3.37;;
5939;SDS011;2995;-31.998;115.906;2022-07-29T02:23:15;19.83;;;5.10;;
5939;SDS011;2995;-31.998;115.906;2022-07-29T02:25:48;23.03;;;4.13;;
5939;SDS011;2995;-31.998;115.906;2022-07-29T02:28:24;21.93;;;4.97;;
5939;SDS011;2995;-31.998;115.906;2022-07-29T02:30:58;14.93;;;4.17;;
5939;SDS011;2995;-31.998;115.906;2022-07-29T02:33:33;14.73;;;4.80;;
5939;SDS011;2995;-31.998;115.906;2022-07-29T02:36:04;21.70;;;4.47;;
5939;SDS011;2995;-31.998;115.906;2022-07-29T02:38:37;13.57;;;3.63;;
5939;SDS011;2995;-31.998;115.906;2022-07-29T02:41:19;16.50;;;3.73;;
5939;SDS011;2995;-31.998;115.906;2022-07-29T02:43:53;13.37;;;4.57;;
5939;SDS011;2995;-31.998;115.906;2022-07-29T02:46:27;23.73;;;4.70;;
5939;SDS011;2995;-31.998;115.906;2022-07-29T02:49:07;18.33;;;3.80;;
5939;SDS011;2995;-31.998;115.906;2022-07-29T02:51:43;19.93;;;4.07;;
5939;SDS011;2995;-31.998;115.906;2022-07-29T02:54:20;17.90;;;5.33;;
5939;SDS011;2995;-31.998;115.906;2022-07-29T02:56:55;25.43;;;4.87;;
5939;SDS011;2995;-31.998;115.906;2022-07-29T02:59:30;22.00;;;5.00;;
5939;SDS011;2995;-31.998;115.906;2022-07-29T03:02:05;13.60;;;4.30;;
5939;SDS011;2995;-31.998;115.906;2022-07-29T03:04:41;22.53;;;3.60;;
5939;SDS011;2995;-31.998;115.906;2022-07-29T03:07:13;23.07;;;4.80;;
5939;SDS011;2995;-31.998;115.906;2022-07-29T03:09:47;14.50;;;3.07;;
5939;SDS011;2995;-31.998;115.906;2022-07-29T03:12:20;15.30;;;4.10;;
5939;SDS011;2995;-31.998;115.906;2022-07-29T03:14:51;15.73;;;3.63;;
5939;SDS011;2995;-31.998;115.906;2022-07-29T03:17:23;17.13;;;4.50;;
5939;SDS011;2995;-31.998;115.906;2022-07-29T03:19:57;19.77;;;4.43;;
5939;SDS011;2995;-31.998;115.906;2022-07-29T03:22:28;14.43;;;3.77;;
5939;SDS011;2995;-31.998;115.906;2022-07-29T03:25:07;16.17;;;3.40;;
5939;SDS011;2995;-31.998;115.906;2022-07-29T03:27:39;20.70;;;3.60;;
5939;SDS011;2995;-31.998;115.906;2022-07-29T03:30:12;20.00;;;4.87;;
5939;SDS011;2995;-31.998;115.906;2022-07-29T03:32:44;17.07;;;3.97;;
5939;SDS011;2995;-31.998;115.906;2022-07-29T03:35:17;14.27;;;3.30;;
5939;SDS011;2995;-31.998;115.906;2022-07-29T03:37:49;18.70;;;3.70;;
5939;SDS011;2995;-31.998;115.906;2022-07-29T03:40:21;11.30;;;3.30;;
5939;SDS011;2995;-31.998;115.906;2022-07-29T03:42:57;15.60;;;3.70;;
5939;SDS011;2995;-31.998;115.906;2022-07-29T03:45:30;18.43;;;4.10;;
5939;SDS011;2995;-31.998;115.906;2022-07-29T03:48:05;19.13;;;5.47;;
5939;SDS011;2995;-31.998;115.906;2022-07-29T03:50:42;16.60;;;3.50;;
5939;SDS011;2995;-31.998;115.906;2022-07-29T03:53:13;16.93;;;2.90;;
5939;SDS011;2995;-31.998;115.906;2022-07-29T03:55:45;28.30;;;3.90;;
5939;SDS011;2995;-31.998;115.906;2022-07-29T03:58:19;15.03;;;3.67;;
5939;SDS011;2995;-31.998;115.906;2022-07-29T04:00:52;22.47;;;4.47;;
5939;SDS011;2995;-31.998;115.906;2022-07-29T04:03:24;14.90;;;3.40;;
5939;SDS011;2995;-31.998;115.906;2022-07-29T04:06:00;13.53;;;3.67;;
5939;SDS011;2995;-31.998;115.906;2022-07-29T04:08:34;14.30;;;4.43;;
5939;SDS011;2995;-31.998;115.906;2022-07-29T04:11:05;13.20;;;2.70;;
5939;SDS011;2995;-31.998;115.906;2022-07-29T04:13:37;17.53;;;3.37;;
5939;SDS011;2995;-31.998;115.906;2022-07-29T04:16:08;16.13;;;4.03;;
5939;SDS011;2995;-31.998;115.906;2022-07-29T04:18:39;14.53;;;3.80;;
5939;SDS011;2995;-31.998;115.906;2022-07-29T04:21:13;20.30;;;3.60;;
5939;SDS011;2995;-31.998;115.906;2022-07-29T04:23:44;11.77;;;2.70;;
5939;SDS011;2995;-31.998;115.906;2022-07-29T04:26:16;14.30;;;4.07;;
5939;SDS011;2995;-31.998;115.906;2022-07-29T04:28:48;17.57;;;3.87;;
5939;SDS011;2995;-31.998;115.906;2022-07-29T04:31:19;11.93;;;3.03;;
5939;SDS011;2995;-31.998;115.906;2022-07-29T04:33:50;18.40;;;4.07;;
5939;SDS011;2995;-31.998;115.906;2022-07-29T04:36:23;17.17;;;3.53;;
5939;SDS011;2995;-31.998;115.906;2022-07-29T04:38:54;11.03;;;2.50;;
5939;SDS011;2995;-31.998;115.906;2022-07-29T04:41:27;12.60;;;2.77;;
5939;SDS011;2995;-31.998;115.906;2022-07-29T04:43:58;8.30;;;2.80;;
5939;SDS011;2995;-31.998;115.906;2022-07-29T04:46:31;11.67;;;2.80;;
5939;SDS011;2995;-31.998;115.906;2022-07-29T04:49:03;17.80;;;5.10;;
5939;SDS011;2995;-31.998;115.906;2022-07-29T04:51:36;23.77;;;3.97;;
5939;SDS011;2995;-31.998;115.906;2022-07-29T04:54:07;28.27;;;4.73;;
5939;SDS011;2995;-31.998;115.906;2022-07-29T04:56:39;21.73;;;4.50;;
5939;SDS011;2995;-31.998;115.906;2022-07-29T04:59:10;16.23;;;3.83;;
5939;SDS011;2995;-31.998;115.906;2022-07-29T05:01:41;11.50;;;3.00;;
5939;SDS011;2995;-31.998;115.906;2022-07-29T05:04:13;12.53;;;2.63;;
5939;SDS011;2995;-31.998;115.906;2022-07-29T05:06:46;11.70;;;2.57;;
5939;SDS011;2995;-31.998;115.906;2022-07-29T05:09:17;16.13;;;2.97;;
5939;SDS011;2995;-31.998;115.906;2022-07-29T05:11:48;14.60;;;3.70;;
5939;SDS011;2995;-31.998;115.906;2022-07-29T05:14:20;7.57;;;2.60;;
5939;SDS011;2995;-31.998;115.906;2022-07-29T05:16:51;19.93;;;3.17;;
5939;SDS011;2995;-31.998;115.906;2022-07-29T05:19:23;12.50;;;2.53;;
5939;SDS011;2995;-31.998;115.906;2022-07-29T05:21:56;24.13;;;4.23;;
5939;SDS011;2995;-31.998;115.906;2022-07-29T05:24:28;9.40;;;2.70;;
5939;SDS011;2995;-31.998;115.906;2022-07-29T05:26:59;14.80;;;2.90;;
5939;SDS011;2995;-31.998;115.906;2022-07-29T05:29:30;20.03;;;3.97;;
5939;SDS011;2995;-31.998;115.906;2022-07-29T05:32:02;13.47;;;3.57;;
5939;SDS011;2995;-31.998;115.906;2022-07-29T05:34:33;11.43;;;2.50;;
5939;SDS011;2995;-31.998;115.906;2022-07-29T05:37:07;19.30;;;3.77;;
5939;SDS011;2995;-31.998;115.906;2022-07-29T05:39:39;13.37;;;3.27;;
5939;SDS011;2995;-31.998;115.906;2022-07-29T05:42:11;11.67;;;2.83;;
5939;SDS011;2995;-31.998;115.906;2022-07-29T05:44:42;11.70;;;2.90;;
5939;SDS011;2995;-31.998;115.906;2022-07-29T05:47:13;12.23;;;2.40;;
5939;SDS011;2995;-31.998;115.906;2022-07-29T05:49:44;15.67;;;3.73;;
5939;SDS011;2995;-31.998;115.906;2022-07-29T05:52:18;14.13;;;3.87;;
5939;SDS011;2995;-31.998;115.906;2022-07-29T05:54:49;14.93;;;4.90;;
5939;SDS011;2995;-31.998;115.906;2022-07-29T05:57:21;8.83;;;2.47;;
5939;SDS011;2995;-31.998;115.906;2022-07-29T05:59:53;12.50;;;3.00;;
5939;SDS011;2995;-31.998;115.906;2022-07-29T06:02:24;6.57;;;2.13;;
5939;SDS011;2995;-31.998;115.906;2022-07-29T06:04:56;13.63;;;3.77;;
5939;SDS011;2995;-31.998;115.906;2022-07-29T06:07:29;9.30;;;3.10;;
5939;SDS011;2995;-31.998;115.906;2022-07-29T06:10:00;11.40;;;2.93;;
5939;SDS011;2995;-31.998;115.906;2022-07-29T06:12:31;12.80;;;2.83;;
5939;SDS011;2995;-31.998;115.906;2022-07-29T06:15:03;12.17;;;2.73;;
5939;SDS011;2995;-31.998;115.906;2022-07-29T06:17:34;13.07;;;2.87;;
5939;SDS011;2995;-31.998;115.906;2022-07-29T06:20:06;7.50;;;2.67;;
5939;SDS011;2995;-31.998;115.906;2022-07-29T06:22:40;17.27;;;2.80;;
5939;SDS011;2995;-31.998;115.906;2022-07-29T06:25:11;13.33;;;2.43;;
5939;SDS011;2995;-31.998;115.906;2022-07-29T06:27:43;11.47;;;2.50;;
5939;SDS011;2995;-31.998;115.906;2022-07-29T06:30:14;12.23;;;3.30;;
5939;SDS011;2995;-31.998;115.906;2022-07-29T06:32:45;12.37;;;2.30;;
5939;SDS011;2995;-31.998;115.906;2022-07-29T06:35:17;10.00;;;2.57;;
5939;SDS011;2995;-31.998;115.906;2022-07-29T06:37:50;14.87;;;2.97;;
5939;SDS011;2995;-31.998;115.906;2022-07-29T06:40:21;13.63;;;4.37;;
5939;SDS011;2995;-31.998;115.906;2022-07-29T06:43:08;12.33;;;2.77;;
5939;SDS011;2995;-31.998;115.906;2022-07-29T06:45:40;13.80;;;2.67;;
5939;SDS011;2995;-31.998;115.906;2022-07-29T06:48:11;7.90;;;2.70;;
5939;SDS011;2995;-31.998;115.906;2022-07-29T06:50:43;12.17;;;2.60;;
5939;SDS011;2995;-31.998;115.906;2022-07-29T06:53:16;12.03;;;2.50;;
5939;SDS011;2995;-31.998;115.906;2022-07-29T06:55:47;9.60;;;2.50;;
5939;SDS011;2995;-31.998;115.906;2022-07-29T06:58:19;12.33;;;2.53;;
5939;SDS011;2995;-31.998;115.906;2022-07-29T07:00:50;18.83;;;3.63;;
5939;SDS011;2995;-31.998;115.906;2022-07-29T07:03:21;10.30;;;3.10;;
5939;SDS011;2995;-31.998;115.906;2022-07-29T07:05:53;15.20;;;3.10;;
5939;SDS011;2995;-31.998;115.906;2022-07-29T07:08:27;14.93;;;2.40;;
5939;SDS011;2995;-31.998;115.906;2022-07-29T07:10:58;24.50;;;3.63;;
5939;SDS011;2995;-31.998;115.906;2022-07-29T07:13:30;10.57;;;2.37;;
5939;SDS011;2995;-31.998;115.906;2022-07-29T07:16:01;7.70;;;2.27;;
5939;SDS011;2995;-31.998;115.906;2022-07-29T07:18:33;8.77;;;2.33;;
5939;SDS011;2995;-31.998;115.906;2022-07-29T07:21:04;9.20;;;2.53;;
5939;SDS011;2995;-31.998;115.906;2022-07-29T07:23:37;15.73;;;2.60;;
5939;SDS011;2995;-31.998;115.906;2022-07-29T07:26:09;8.00;;;2.20;;
5939;SDS011;2995;-31.998;115.906;2022-07-29T07:28:40;7.50;;;2.43;;
5939;SDS011;2995;-31.998;115.906;2022-07-29T07:31:11;11.60;;;2.67;;
5939;SDS011;2995;-31.998;115.906;2022-07-29T07:33:42;13.73;;;3.17;;
5939;SDS011;2995;-31.998;115.906;2022-07-29T07:36:14;7.70;;;2.20;;
5939;SDS011;2995;-31.998;115.906;2022-07-29T07:38:47;8.23;;;3.40;;
5939;SDS011;2995;-31.998;115.906;2022-07-29T07:41:18;10.87;;;2.87;;
5939;SDS011;2995;-31.998;115.906;2022-07-29T07:43:50;12.87;;;1.97;;
5939;SDS011;2995;-31.998;115.906;2022-07-29T07:46:21;9.80;;;2.00;;
5939;SDS011;2995;-31.998;115.906;2022-07-29T07:48:53;10.00;;;2.10;;
5939;SDS011;2995;-31.998;115.906;2022-07-29T07:51:24;9.63;;;2.13;;
5939;SDS011;2995;-31.998;115.906;2022-07-29T07:53:57;8.00;;;2.33;;
5939;SDS011;2995;-31.998;115.906;2022-07-29T07:56:29;8.10;;;2.60;;
5939;SDS011;2995;-31.998;115.906;2022-07-29T07:59:01;10.13;;;2.40;;
5939;SDS011;2995;-31.998;115.906;2022-07-29T08:01:32;11.27;;;2.43;;
5939;SDS011;2995;-31.998;115.906;2022-07-29T08:04:03;12.87;;;3.03;;
5939;SDS011;2995;-31.998;115.906;2022-07-29T08:06:35;11.50;;;3.17;;
5939;SDS011;2995;-31.998;115.906;2022-07-29T08:09:08;11.60;;;3.23;;
5939;SDS011;2995;-31.998;115.906;2022-07-29T08:11:39;15.07;;;3.40;;
5939;SDS011;2995;-31.998;115.906;2022-07-29T08:14:11;13.87;;;2.73;;
5939;SDS011;2995;-31.998;115.906;2022-07-29T08:16:42;16.60;;;3.00;;
5939;SDS011;2995;-31.998;115.906;2022-07-29T08:19:13;14.60;;;3.00;;
5939;SDS011;2995;-31.998;115.906;2022-07-29T08:21:45;13.17;;;2.83;;
5939;SDS011;2995;-31.998;115.906;2022-07-29T08:24:18;8.00;;;2.20;;
5939;SDS011;2995;-31.998;115.906;2022-07-29T08:27:05;11.57;;;4.30;;
5939;SDS011;2995;-31.998;115.906;2022-07-29T08:29:38;17.03;;;5.67;;
5939;SDS011;2995;-31.998;115.906;2022-07-29T08:32:09;13.80;;;3.13;;
5939;SDS011;2995;-31.998;115.906;2022-07-29T08:34:40;9.23;;;2.60;;
5939;SDS011;2995;-31.998;115.906;2022-07-29T08:37:12;11.40;;;3.40;;
5939;SDS011;2995;-31.998;115.906;2022-07-29T08:39:46;21.33;;;3.97;;
5939;SDS011;2995;-31.998;115.906;2022-07-29T08:42:17;10.00;;;2.57;;
5939;SDS011;2995;-31.998;115.906;2022-07-29T08:44:49;14.13;;;6.73;;
5939;SDS011;2995;-31.998;115.906;2022-07-29T08:47:21;18.63;;;4.80;;
5939;SDS011;2995;-31.998;115.906;2022-07-29T08:49:53;12.17;;;3.50;;
5939;SDS011;2995;-31.998;115.906;2022-07-29T08:52:25;18.53;;;3.50;;
5939;SDS011;2995;-31.998;115.906;2022-07-29T08:54:59;16.27;;;3.37;;
5939;SDS011;2995;-31.998;115.906;2022-07-29T08:57:30;21.67;;;3.50;;
5939;SDS011;2995;-31.998;115.906;2022-07-29T09:00:04;7.53;;;2.57;;
5939;SDS011;2995;-31.998;115.906;2022-07-29T09:02:39;12.73;;;2.60;;
5939;SDS011;2995;-31.998;115.906;2022-07-29T09:05:14;16.90;;;3.27;;
5939;SDS011;2995;-31.998;115.906;2022-07-29T09:07:45;13.70;;;2.57;;
5939;SDS011;2995;-31.998;115.906;2022-07-29T09:10:19;12.20;;;2.93;;
5939;SDS011;2995;-31.998;115.906;2022-07-29T09:12:51;13.13;;;4.70;;
5939;SDS011;2995;-31.998;115.906;2022-07-29T09:15:23;5.87;;;1.80;;
5939;SDS011;2995;-31.998;115.906;2022-07-29T09:17:54;10.93;;;2.63;;
5939;SDS011;2995;-31.998;115.906;2022-07-29T09:20:26;7.97;;;3.03;;
5939;SDS011;2995;-31.998;115.906;2022-07-29T09:23:18;9.23;;;3.50;;
5939;SDS011;2995;-31.998;115.906;2022-07-29T09:25:51;11.83;;;2.50;;
5939;SDS011;2995;-31.998;115.906;2022-07-29T09:28:22;14.33;;;3.80;;
5939;SDS011;2995;-31.998;115.906;2022-07-29T09:30:54;18.20;;;5.57;;
5939;SDS011;2995;-31.998;115.906;2022-07-29T09:33:31;12.30;;;3.50;;
5939;SDS011;2995;-31.998;115.906;2022-07-29T09:36:06;9.87;;;3.20;;
5939;SDS011;2995;-31.998;115.906;2022-07-29T09:38:38;10.10;;;3.03;;
5939;SDS011;2995;-31.998;115.906;2022-07-29T09:41:11;8.97;;;3.30;;
5939;SDS011;2995;-31.998;115.906;2022-07-29T09:43:53;14.43;;;3.40;;
5939;SDS011;2995;-31.998;115.906;2022-07-29T09:46:25;15.83;;;6.80;;
5939;SDS011;2995;-31.998;115.906;2022-07-29T09:49:08;16.07;;;3.70;;
5939;SDS011;2995;-31.998;115.906;2022-07-29T09:51:41;15.10;;;4.33;;
5939;SDS011;2995;-31.998;115.906;2022-07-29T09:54:22;20.63;;;6.60;;
5939;SDS011;2995;-31.998;115.906;2022-07-29T09:56:56;20.17;;;4.83;;
5939;SDS011;2995;-31.998;115.906;2022-07-29T09:59:27;8.33;;;3.70;;
5939;SDS011;2995;-31.998;115.906;2022-07-29T10:01:58;14.97;;;4.10;;
5939;SDS011;2995;-31.998;115.906;2022-07-29T10:04:39;29.40;;;13.87;;
5939;SDS011;2995;-31.998;115.906;2022-07-29T10:07:11;12.00;;;6.00;;
5939;SDS011;2995;-31.998;115.906;2022-07-29T10:09:49;17.90;;;6.47;;
5939;SDS011;2995;-31.998;115.906;2022-07-29T10:12:26;17.93;;;8.37;;
5939;SDS011;2995;-31.998;115.906;2022-07-29T10:14:57;17.17;;;3.77;;
5939;SDS011;2995;-31.998;115.906;2022-07-29T10:17:30;14.30;;;4.30;;
5939;SDS011;2995;-31.998;115.906;2022-07-29T10:20:02;10.87;;;4.10;;
5939;SDS011;2995;-31.998;115.906;2022-07-29T10:22:33;15.50;;;3.70;;
5939;SDS011;2995;-31.998;115.906;2022-07-29T10:25:05;10.20;;;2.93;;
5939;SDS011;2995;-31.998;115.906;2022-07-29T10:27:39;10.60;;;2.10;;
5939;SDS011;2995;-31.998;115.906;2022-07-29T10:30:11;11.33;;;3.40;;
5939;SDS011;2995;-31.998;115.906;2022-07-29T10:33:05;13.20;;;5.17;;
5939;SDS011;2995;-31.998;115.906;2022-07-29T10:38:53;8.47;;;3.40;;
5939;SDS011;2995;-31.998;115.906;2022-07-29T10:41:33;19.97;;;4.50;;
5939;SDS011;2995;-31.998;115.906;2022-07-29T10:44:18;15.10;;;4.93;;
5939;SDS011;2995;-31.998;115.906;2022-07-29T10:46:51;11.57;;;4.00;;
5939;SDS011;2995;-31.998;115.906;2022-07-29T10:49:23;11.27;;;4.60;;
5939;SDS011;2995;-31.998;115.906;2022-07-29T10:51:57;11.90;;;5.13;;
5939;SDS011;2995;-31.998;115.906;2022-07-29T10:54:41;8.20;;;3.47;;
5939;SDS011;2995;-31.998;115.906;2022-07-29T10:57:21;29.20;;;3.10;;
5939;SDS011;2995;-31.998;115.906;2022-07-29T11:03:01;11.40;;;2.40;;
5939;SDS011;2995;-31.998;115.906;2022-07-29T11:05:50;13.20;;;3.70;;
5939;SDS011;2995;-31.998;115.906;2022-07-29T11:08:23;12.43;;;2.00;;
5939;SDS011;2995;-31.998;115.906;2022-07-29T11:14:02;13.40;;;5.80;;
5939;SDS011;2995;-31.998;115.906;2022-07-29T11:19:38;16.47;;;7.50;;
5939;SDS011;2995;-31.998;115.906;2022-07-29T11:22:09;10.30;;;3.47;;
5939;SDS011;2995;-31.998;115.906;2022-07-29T11:25:12;8.50;;;3.17;;
5939;SDS011;2995;-31.998;115.906;2022-07-29T11:27:44;13.80;;;4.50;;
5939;SDS011;2995;-31.998;115.906;2022-07-29T11:30:16;10.13;;;2.50;;
5939;SDS011;2995;-31.998;115.906;2022-07-29T11:32:47;8.93;;;2.03;;
5939;SDS011;2995;-31.998;115.906;2022-07-29T11:35:22;12.37;;;2.60;;
5939;SDS011;2995;-31.998;115.906;2022-07-29T11:43:53;8.23;;;2.47;;
5939;SDS011;2995;-31.998;115.906;2022-07-29T11:49:19;19.43;;;7.70;;
5939;SDS011;2995;-31.998;115.906;2022-07-29T11:51:53;13.37;;;3.70;;
5939;SDS011;2995;-31.998;115.906;2022-07-29T11:54:29;12.67;;;3.70;;
5939;SDS011;2995;-31.998;115.906;2022-07-29T11:57:03;10.93;;;3.70;;
5939;SDS011;2995;-31.998;115.906;2022-07-29T11:59:39;8.57;;;2.73;;
5939;SDS011;2995;-31.998;115.906;2022-07-29T12:02:11;6.63;;;2.43;;
5939;SDS011;2995;-31.998;115.906;2022-07-29T12:04:48;5.10;;;1.83;;
5939;SDS011;2995;-31.998;115.906;2022-07-29T12:07:28;3.90;;;1.70;;
5939;SDS011;2995;-31.998;115.906;2022-07-29T12:10:00;4.80;;;1.77;;
5939;SDS011;2995;-31.998;115.906;2022-07-29T12:12:32;5.23;;;1.87;;
5939;SDS011;2995;-31.998;115.906;2022-07-29T12:15:11;8.97;;;1.90;;
5939;SDS011;2995;-31.998;115.906;2022-07-29T12:17:46;9.13;;;1.90;;
5939;SDS011;2995;-31.998;115.906;2022-07-29T12:20:22;14.10;;;3.60;;
5939;SDS011;2995;-31.998;115.906;2022-07-29T12:22:56;12.60;;;5.23;;
5939;SDS011;2995;-31.998;115.906;2022-07-29T12:25:34;7.83;;;2.20;;
5939;SDS011;2995;-31.998;115.906;2022-07-29T12:28:06;7.33;;;2.17;;
5939;SDS011;2995;-31.998;115.906;2022-07-29T12:30:42;4.97;;;1.93;;
5939;SDS011;2995;-31.998;115.906;2022-07-29T12:33:15;10.30;;;2.50;;
5939;SDS011;2995;-31.998;115.906;2022-07-29T12:35:49;4.77;;;1.27;;
5939;SDS011;2995;-31.998;115.906;2022-07-29T12:38:23;8.40;;;2.40;;
5939;SDS011;2995;-31.998;115.906;2022-07-29T12:40:55;4.33;;;1.80;;
5939;SDS011;2995;-31.998;115.906;2022-07-29T12:43:27;5.77;;;2.13;;
5939;SDS011;2995;-31.998;115.906;2022-07-29T12:46:10;3.60;;;2.10;;
5939;SDS011;2995;-31.998;115.906;2022-07-29T12:48:42;9.97;;;2.90;;
5939;SDS011;2995;-31.998;115.906;2022-07-29T12:51:13;8.10;;;2.60;;
5939;SDS011;2995;-31.998;115.906;2022-07-29T12:56:36;11.10;;;3.27;;
5939;SDS011;2995;-31.998;115.906;2022-07-29T12:59:14;5.97;;;2.73;;
5939;SDS011;2995;-31.998;115.906;2022-07-29T13:01:46;3.53;;;1.60;;
5939;SDS011;2995;-31.998;115.906;2022-07-29T13:04:25;7.27;;;1.53;;
5939;SDS011;2995;-31.998;115.906;2022-07-29T13:07:02;6.00;;;2.20;;
5939;SDS011;2995;-31.998;115.906;2022-07-29T13:09:39;5.47;;;2.10;;
5939;SDS011;2995;-31.998;115.906;2022-07-29T13:12:11;5.63;;;2.10;;
5939;SDS011;2995;-31.998;115.906;2022-07-29T13:14:43;7.90;;;1.67;;
5939;SDS011;2995;-31.998;115.906;2022-07-29T13:17:16;9.10;;;1.30;;
5939;SDS011;2995;-31.998;115.906;2022-07-29T13:19:49;4.77;;;1.60;;
5939;SDS011;2995;-31.998;115.906;2022-07-29T13:22:22;6.50;;;1.43;;
5939;SDS011;2995;-31.998;115.906;2022-07-29T13:24:56;9.13;;;1.67;;
5939;SDS011;2995;-31.998;115.906;2022-07-29T13:27:28;7.80;;;2.07;;
5939;SDS011;2995;-31.998;115.906;2022-07-29T13:30:01;6.90;;;1.63;;
5939;SDS011;2995;-31.998;115.906;2022-07-29T13:32:33;5.00;;;2.23;;
5939;SDS011;2995;-31.998;115.906;2022-07-29T13:35:05;6.90;;;1.93;;
5939;SDS011;2995;-31.998;115.906;2022-07-29T13:37:38;11.80;;;2.23;;
5939;SDS011;2995;-31.998;115.906;2022-07-29T13:40:11;6.43;;;2.20;;
5939;SDS011;2995;-31.998;115.906;2022-07-29T13:42:43;5.23;;;1.80;;
5939;SDS011;2995;-31.998;115.906;2022-07-29T13:45:14;5.43;;;1.77;;
5939;SDS011;2995;-31.998;115.906;2022-07-29T13:47:45;9.43;;;1.43;;
5939;SDS011;2995;-31.998;115.906;2022-07-29T13:50:16;4.30;;;1.50;;
5939;SDS011;2995;-31.998;115.906;2022-07-29T13:52:48;14.83;;;2.03;;
5939;SDS011;2995;-31.998;115.906;2022-07-29T13:55:21;3.27;;;1.30;;
5939;SDS011;2995;-31.998;115.906;2022-07-29T13:57:52;4.60;;;1.50;;
5939;SDS011;2995;-31.998;115.906;2022-07-29T14:00:24;7.70;;;2.17;;
5939;SDS011;2995;-31.998;115.906;2022-07-29T14:02:55;8.33;;;2.23;;
5939;SDS011;2995;-31.998;115.906;2022-07-29T14:05:26;13.50;;;2.70;;
5939;SDS011;2995;-31.998;115.906;2022-07-29T14:07:58;6.83;;;1.57;;
5939;SDS011;2995;-31.998;115.906;2022-07-29T14:10:31;7.07;;;1.70;;
5939;SDS011;2995;-31.998;115.906;2022-07-29T14:13:02;5.13;;;1.90;;
5939;SDS011;2995;-31.998;115.906;2022-07-29T14:15:33;13.03;;;2.80;;
5939;SDS011;2995;-31.998;115.906;2022-07-29T14:18:04;6.43;;;3.27;;
5939;SDS011;2995;-31.998;115.906;2022-07-29T14:20:36;7.80;;;2.80;;
5939;SDS011;2995;-31.998;115.906;2022-07-29T14:23:07;5.83;;;2.10;;
5939;SDS011;2995;-31.998;115.906;2022-07-29T14:25:40;10.93;;;2.30;;
5939;SDS011;2995;-31.998;115.906;2022-07-29T14:28:12;10.13;;;1.93;;
5939;SDS011;2995;-31.998;115.906;2022-07-29T14:30:44;7.33;;;1.40;;
5939;SDS011;2995;-31.998;115.906;2022-07-29T14:33:16;7.43;;;1.97;;
5939;SDS011;2995;-31.998;115.906;2022-07-29T14:35:47;4.50;;;1.77;;
5939;SDS011;2995;-31.998;115.906;2022-07-29T14:38:18;8.53;;;2.13;;
5939;SDS011;2995;-31.998;115.906;2022-07-29T14:40:52;9.97;;;1.80;;
5939;SDS011;2995;-31.998;115.906;2022-07-29T14:43:23;11.10;;;1.93;;
5939;SDS011;2995;-31.998;115.906;2022-07-29T14:45:54;7.27;;;1.30;;
5939;SDS011;2995;-31.998;115.906;2022-07-29T14:48:26;3.00;;;1.10;;
5939;SDS011;2995;-31.998;115.906;2022-07-29T14:50:57;4.90;;;1.30;;
5939;SDS011;2995;-31.998;115.906;2022-07-29T14:53:28;4.90;;;1.20;;
5939;SDS011;2995;-31.998;115.906;2022-07-29T14:56:02;8.07;;;1.10;;
5939;SDS011;2995;-31.998;115.906;2022-07-29T14:58:33;10.50;;;2.07;;
5939;SDS011;2995;-31.998;115.906;2022-07-29T15:01:04;11.17;;;1.90;;
5939;SDS011;2995;-31.998;115.906;2022-07-29T15:03:36;5.30;;;1.90;;
5939;SDS011;2995;-31.998;115.906;2022-07-29T15:06:07;4.67;;;1.70;;
5939;SDS011;2995;-31.998;115.906;2022-07-29T15:08:38;5.00;;;2.03;;
5939;SDS011;2995;-31.998;115.906;2022-07-29T15:11:12;6.47;;;1.50;;
5939;SDS011;2995;-31.998;115.906;2022-07-29T15:13:43;2.83;;;1.20;;
5939;SDS011;2995;-31.998;115.906;2022-07-29T15:16:14;4.03;;;1.50;;
5939;SDS011;2995;-31.998;115.906;2022-07-29T15:18:45;4.37;;;1.33;;
5939;SDS011;2995;-31.998;115.906;2022-07-29T15:21:17;6.67;;;2.23;;
5939;SDS011;2995;-31.998;115.906;2022-07-29T15:23:48;6.60;;;3.40;;
5939;SDS011;2995;-31.998;115.906;2022-07-29T15:26:21;11.17;;;1.43;;
5939;SDS011;2995;-31.998;115.906;2022-07-29T15:28:53;5.20;;;1.50;;